Saguenay, Canada
Current Conditions -  °F | °C
As of 5:00 PM on Thursday 23 Oct 2014 (Local Time) from CYBG Reporting Station
Few Clouds Few Clouds  
Wind Chill: 52°   Ceiling: Unl
Heat Index: 52°   Visibility: 25mi
Dew Point: 32°   Wind: 3mph
Humidity: 47%   Direction: 50°NE
Pressure: 30.13"   Gusts: NA
Location:  48.42°N, 71.07°W
Report Text: CYBG 232100Z 05003KT 25SM FEW120 FEW200 FEW240 11/00 A3013 RMK AC1CI1CI1 SLP209
Loading
Personal Weather Stations






























Interactive Weather Map
Tropical Storm Tracking
New forecast layout! Learn more

10-Day Weather Forecast

Advertisements
Track Severe Weather on mobile